Baton Rouge, LA (70827)

4:10 AM CDT on July 28, 2016 (GMT -0500)
Ascot | | Change Station

Elev 49 ft 30.42 °N, 91.06 °W | Updated 11 minutes ago

Clear
Clear
72.9 °F
Feels Like 72.9 °F
N
0.0
Wind Variable Wind from WSW

Today
High -- | Low -- °F
--% Chance of Precip.
Yesterday
High -- | Low -- °F
Precip. -- in
Pressure 30.01 in
Visibility 10.0 miles
Clouds Clear
Dew Point 71 °F
Humidity 93%
Rainfall 0.00 in
Snow Depth Not available.
6:20 AM 8:00 PM
Waning Crescent, 34% visible
METAR KBTR 280853Z 00000KT 10SM CLR 23/22 A3001 RMK AO2 SLP163 T02280217 55002 $
Pressure 30.01 in
Visibility 10.0 miles
Clouds Clear
Dew Point 71 °F
Humidity 93%
Rainfall 0.00 in
Snow Depth Not available.
6:20 AM 8:00 PM
Waning Crescent, 34% visible
METAR KBTR 280853Z 00000KT 10SM CLR 23/22 A3001 RMK AO2 SLP163 T02280217 55002 $

10-Day Weather Forecast

Almanac

Astronomy

Jul. 28, 2016 Rise Set
Actual Time
Civil Twilight
Nautical Twilight
Astronomical Twilight
Moon
Length of Visible Light
Length of Day
Tomorrow will be .
, % of the Moon is Illuminated

Today's Extremes

State Highs State Lows

Community

WunderPhotos

Upload Photos

1,928,070 photos uploaded!

WunderBlog® & News

Nearby

Air Quality

  Air Quality AQ Index Pollutant
Not available.

Snow Depth

Station Depth Elevation

Earthquake Activity

City Distance Mag. Time & Date
Minimum magnitude displayed is 2.5.

Coastal Water Temperatures

Place Temperature

Stations

Nearby Weather Stations

Station Location Temp. Windchill Dew Point Humidity Wind Precip. Elev Updated Type
                   

Watches & Warnings

There are currently no watches in effect.